Terminal Aerodrome Forecast
Issued by NWS

Home | Current Version | Previous Version | Text Only | Print | Product List | Glossary On
Versions: 1 2 3 4 5 6 7 8 9 10 11 12 13 14 15 16 17 18 19 20 21
000
FTUS43 KJKL 271700
TAFSME
TAF
KSME 271733Z 2718/2818 34005KT P6SM BKN019 OVC080
     FM272100 33004KT P6SM OVC030
     FM272300 35003KT P6SM BKN050
     FM280200 36002KT P6SM BKN250=

USA.gov is the U.S. government's official web portal to all federal, state and local government web resources and services.